EW8241 Weather Reports


Display with metric or nautical units.
time (UTC)temp
F
wind
direction
speed
MPH
gust
MPH
rain 1hr
in
rain 24hr
in
rain mn
in
humidity
%
barometer
mb
20260507132515 62 113 4.0 16.0 0.00 0.00 0.00 47 1009.7
20260507131516 67 0.0 1.0 0.00 0.00 0.00 45 1009.8
20260507130515 69 0.0 0.0 0.00 0.00 0.00 45 1009.9
20260507125515 70 0.0 0.0 0.00 0.00 0.00 41 1009.8
20260507124556 71 0.0 0.0 0.00 0.00 0.00 40 1010.0
20260507123515 70 0.0 0.0 0.00 0.00 0.00 41 1010.1
20260507122515 70 0.0 0.0 0.00 0.00 0.00 42 1010.2
20260507121516 70 0.0 0.0 0.00 0.00 0.00 42 1010.3
20260507120515 69 0.0 0.0 0.00 0.00 0.00 43 1010.5
20260507115515 68 0.0 0.0 0.00 0.00 0.00 45 1010.5
20260507114556 67 0.0 0.0 0.00 0.00 0.00 48 1010.7
20260507113536 67 0.0 0.0 0.00 0.00 0.00 46 1010.6
20260507112517 68 0.0 0.0 0.00 0.00 0.00 46 1010.8
20260507111537 67 0.0 0.0 0.00 0.00 0.00 48 1010.9
20260507110517 68 0.0 0.0 0.00 0.00 0.00 47 1011.1
20260507105517 67 0.0 0.0 0.00 0.00 0.00 47 1011.0
20260507104538 66 0.0 0.0 0.00 0.00 0.00 50 1011.0
20260507103537 67 0.0 0.0 0.00 0.00 0.00 48 1011.2
20260507102537 69 0.0 0.0 0.00 0.00 0.00 48 1011.3
20260507101517 67 0.0 0.0 0.00 0.00 0.00 50 1011.3
20260507100517 66 0.0 1.0 0.00 0.00 0.00 51 1011.3
20260507095517 67 0.0 0.0 0.00 0.00 0.00 50 1011.4
20260507094517 64 0.0 0.0 0.00 0.00 0.00 53 1011.3
20260507093517 64 0.0 1.0 0.00 0.00 0.00 52 1011.1
20260507092517 64 0.0 0.0 0.00 0.00 0.00 53 1011.0
20260507091517 64 0.0 0.0 0.00 0.00 0.00 52 1011.0
20260507090537 64 0.0 0.0 0.00 0.00 0.00 52 1011.1
20260507085517 64 0.0 0.0 0.00 0.00 0.00 51 1011.2
20260507084517 64 0.0 0.0 0.00 0.00 0.00 50 1011.3
20260507083517 63 0.0 0.0 0.00 0.00 0.00 52 1011.2
20260507082517 62 0.0 0.0 0.00 0.00 0.00 54 1011.2
20260507081517 62 0.0 0.0 0.00 0.00 0.00 53 1011.1
20260507080517 60 0.0 0.0 0.00 0.00 0.00 61 1011.0
20260507075517 59 0.0 0.0 0.00 0.00 0.00 60 1010.9
20260507074517 59 0.0 0.0 0.00 0.00 0.00 59 1010.9
20260507073517 59 0.0 0.0 0.00 0.00 0.00 58 1011.0
20260507072517 59 0.0 0.0 0.00 0.00 0.00 59 1011.0
20260507071517 58 0.0 0.0 0.00 0.00 0.00 62 1010.8
20260507070517 58 0.0 0.0 0.00 0.00 0.00 61 1010.8
20260507065517 58 0.0 0.0 0.00 0.00 0.00 61 1010.8
20260507064517 58 0.0 0.0 0.00 0.00 0.00 61 1010.7
20260507063517 58 0.0 0.0 0.00 0.00 0.00 62 1010.7
20260507062517 57 0.0 0.0 0.00 0.00 0.00 64 1010.4
20260507061517 56 0.0 0.0 0.00 0.00 0.00 67 1010.4
20260507060517 55 0.0 0.0 0.00 0.00 0.00 69 1010.2
20260507055517 54 0.0 0.0 0.00 0.00 0.00 69 1010.1
20260507054517 53 0.0 0.0 0.00 0.00 0.00 70 1010.0
20260507053517 53 0.0 0.0 0.00 0.00 0.00 71 1010.1
20260507052517 53 0.0 0.0 0.00 0.00 0.00 71 1010.0
20260507051517 53 0.0 0.0 0.00 0.00 0.00 70 1009.7
20260507050517 53 0.0 0.0 0.00 0.00 0.00 70 1009.7
20260507045517 54 0.0 0.0 0.00 0.00 0.00 69 1009.8
20260507044517 54 0.0 0.0 0.00 0.00 0.00 69 1009.8
20260507043537 54 0.0 0.0 0.00 0.00 0.00 68 1009.8
20260507042537 55 0.0 0.0 0.00 0.00 0.00 68 1009.8
20260507041517 55 0.0 0.0 0.00 0.00 0.00 67 1009.8
20260507040517 55 0.0 0.0 0.00 0.00 0.00 67 1009.7
20260507035517 55 0.0 0.0 0.00 0.00 0.00 66 1009.6
20260507034517 56 0.0 0.0 0.00 0.00 0.00 66 1009.7
20260507033537 56 0.0 0.0 0.00 0.00 0.00 65 1009.8
20260507032517 57 0.0 0.0 0.00 0.00 0.00 63 1009.7
20260507031517 57 0.0 0.0 0.00 0.00 0.00 61 1009.6
20260507030517 57 0.0 0.0 0.00 0.00 0.00 60 1009.7
20260507025517 58 0.0 0.0 0.00 0.00 0.00 59 1009.7
20260507024517 58 0.0 0.0 0.00 0.00 0.00 58 1009.8
20260507023537 59 0.0 0.0 0.00 0.00 0.00 56 1009.9
20260507022517 59 0.0 0.0 0.00 0.00 0.00 56 1009.9
20260507021537 59 0.0 0.0 0.00 0.00 0.00 55 1009.9
20260507020516 59 0.0 0.0 0.00 0.00 0.00 54 1010.0
20260507015517 59 0.0 0.0 0.00 0.00 0.00 55 1010.0
20260507014517 59 0.0 0.0 0.00 0.00 0.00 54 1010.0
20260507013536 59 0.0 0.0 0.00 0.00 0.00 55 1010.0
20260507012517 59 0.0 0.0 0.00 0.00 0.00 54 1010.1
20260507011516 59 0.0 0.0 0.00 0.00 0.00 53 1010.2
20260507010517 59 0.0 0.0 0.00 0.00 0.00 52 1010.1
20260507005516 60 0.0 0.0 0.00 0.00 0.00 52 1010.3
20260507004537 60 0.0 1.0 0.00 0.00 0.00 52 1010.4
20260507003517 61 0.0 2.0 0.00 0.00 0.00 49 1010.3
20260507002556 62 0.0 0.0 0.00 0.00 0.00 45 1010.2
20260507001517 62 0.0 4.0 0.00 0.00 0.00 43 1010.3
20260507000536 62 0.0 0.0 0.00 0.00 0.00 42 1010.4
20260506235516 62 0.0 0.0 0.00 0.00 0.00 43 1010.4
20260506234517 63 0.0 0.0 0.00 0.00 0.00 44 1010.3
20260506233516 63 0.0 0.0 0.00 0.00 0.00 44 1010.3
20260506232517 63 0.0 0.0 0.00 0.00 0.00 43 1010.2
20260506231517 62 0.0 0.0 0.00 0.00 0.00 43 1010.0
20260506230516 62 0.0 0.0 0.00 0.00 0.00 43 1010.0
20260506225516 62 0.0 0.0 0.00 0.00 0.00 42 1010.0
20260506224517 63 0.0 0.0 0.00 0.00 0.00 42 1010.1
20260506223516 63 0.0 0.0 0.00 0.00 0.00 41 1010.0
20260506222516 64 0.0 0.0 0.00 0.00 0.00 40 1009.9
20260506221517 65 0.0 0.0 0.00 0.00 0.00 38 1010.0
20260506220537 65 0.0 0.0 0.00 0.00 0.00 36 1010.0
20260506215516 64 0.0 0.0 0.00 0.00 0.00 36 1009.9
20260506214516 64 0.0 0.0 0.00 0.00 0.00 36 1010.0
20260506213516 64 0.0 0.0 0.00 0.00 0.00 35 1009.9
20260506212516 64 0.0 0.0 0.00 0.00 0.00 36 1009.9
20260506211516 64 0.0 0.0 0.00 0.00 0.00 34 1009.9
20260506210516 64 0.0 0.0 0.00 0.00 0.00 36 1009.6
20260506205516 64 0.0 0.0 0.00 0.00 0.00 36 1009.5
20260506204516 64 0.0 0.0 0.00 0.00 0.00 35 1009.4
20260506203516 64 0.0 0.0 0.00 0.00 0.00 35 1009.4
20260506202516 64 0.0 0.0 0.00 0.00 0.00 35 1009.4
20260506201516 64 0.0 0.0 0.00 0.00 0.00 35 1009.2
20260506200516 64 0.0 0.0 0.00 0.00 0.00 35 1009.2
20260506195516 64 0.0 0.0 0.00 0.00 0.00 35 1009.1
20260506194516 64 0.0 0.0 0.00 0.00 0.00 35 1009.0
20260506193516 65 0.0 0.0 0.00 0.00 0.00 36 1008.9
20260506192516 65 0.0 0.0 0.00 0.00 0.00 37 1008.9
20260506191516 66 0.0 0.0 0.00 0.00 0.00 37 1008.8
20260506190516 67 0.0 0.0 0.00 0.00 0.00 34 1008.8
20260506185516 68 0.0 0.0 0.00 0.00 0.00 32 1008.7
20260506184536 68 0.0 0.0 0.00 0.00 0.00 31 1008.7
20260506183516 69 0.0 0.0 0.00 0.00 0.00 32 1008.8
20260506182516 69 0.0 0.0 0.00 0.00 0.00 32 1008.4
20260506181516 70 0.0 0.0 0.00 0.00 0.00 32 1008.6
20260506180536 70 0.0 0.0 0.00 0.00 0.00 31 1008.6
20260506175516 70 0.0 0.0 0.00 0.00 0.00 32 1008.5
20260506174516 70 0.0 1.0 0.00 0.00 0.00 31 1008.5
20260506173516 71 0.0 1.0 0.00 0.00 0.00 31 1008.6
20260506172516 71 0.0 0.0 0.00 0.00 0.00 31 1008.7
20260506171516 71 0.0 0.0 0.00 0.00 0.00 31 1008.7
20260506170516 73 0.0 0.0 0.00 0.00 0.00 29 1008.8
20260506165516 73 0.0 1.0 0.00 0.00 0.00 30 1008.9
20260506164516 73 0.0 0.0 0.00 0.00 0.00 30 1008.9
20260506163516 72 0.0 0.0 0.00 0.00 0.00 30 1008.9
20260506162536 73 0.0 1.0 0.00 0.00 0.00 30 1009.0
20260506161516 73 0.0 0.0 0.00 0.00 0.00 29 1009.0
20260506160516 74 0.0 1.0 0.00 0.00 0.00 29 1009.1
20260506155516 74 0.0 0.0 0.00 0.00 0.00 29 1009.0
20260506154516 74 0.0 2.0 0.00 0.00 0.00 30 1009.2
20260506153516 73 0.0 0.0 0.00 0.00 0.00 30 1009.1
20260506152516 73 0.0 0.0 0.00 0.00 0.00 30 1009.3
20260506151516 74 0.0 0.0 0.00 0.00 0.00 29 1009.3
20260506150516 74 0.0 0.0 0.00 0.00 0.00 30 1009.5
20260506145516 73 0.0 0.0 0.00 0.00 0.00 32 1009.6
20260506144516 73 0.0 0.0 0.00 0.00 0.00 31 1009.6
20260506143516 73 0.0 1.0 0.00 0.00 0.00 30 1009.8
20260506142516 74 0.0 0.0 0.00 0.00 0.00 30 1010.1
20260506141516 74 0.0 0.0 0.00 0.00 0.00 30 1010.2
20260506140516 73 0.0 0.0 0.00 0.00 0.00 31 1010.1
20260506135516 74 0.0 0.0 0.00 0.00 0.00 30 1010.3
20260506134516 73 0.0 0.0 0.00 0.00 0.00 32 1010.4
20260506133515 73 0.0 0.0 0.00 0.00 0.00 31 1010.5